createdAt,value
2022-09-22T00:01:06.151Z,46.57
2022-09-22T00:03:33.825Z,46.42
2022-09-22T00:06:02.675Z,46.83
2022-09-22T00:08:32.277Z,46.63
2022-09-22T00:11:05.391Z,46.39
2022-09-22T00:13:33.212Z,46.20
2022-09-22T00:16:00.955Z,46.27
2022-09-22T00:18:28.256Z,46.40
2022-09-22T00:20:55.039Z,46.52
2022-09-22T00:23:26.236Z,46.82
2022-09-22T00:25:52.591Z,46.19
2022-09-22T00:28:20.146Z,46.23
2022-09-22T00:30:47.057Z,46.41
2022-09-22T00:33:13.340Z,46.57
2022-09-22T00:35:39.637Z,46.58
2022-09-22T00:38:06.126Z,46.65
2022-09-22T00:40:34.113Z,46.86
2022-09-22T00:43:22.117Z,47.67
2022-09-22T00:45:54.434Z,46.91
2022-09-22T00:48:23.359Z,46.97
2022-09-22T00:50:53.657Z,47.27
2022-09-22T00:53:22.799Z,46.76
2022-09-22T00:55:55.353Z,46.99
2022-09-22T00:58:30.656Z,47.60
2022-09-22T01:00:57.146Z,46.98
2022-09-22T01:03:29.809Z,46.69
2022-09-22T01:06:02.875Z,47.57
2022-09-22T01:08:31.283Z,47.10
2022-09-22T01:10:59.460Z,46.80
2022-09-22T01:13:39.624Z,47.44
2022-09-22T01:16:27.827Z,47.53
2022-09-22T01:19:00.384Z,47.18
2022-09-22T01:22:04.569Z,47.96
2022-09-22T01:24:55.830Z,47.87
2022-09-22T01:27:52.933Z,47.97
2022-09-22T01:30:23.732Z,47.64
2022-09-22T01:33:09.762Z,47.49
2022-09-22T01:36:03.961Z,47.68
2022-09-22T01:38:42.370Z,47.55
2022-09-22T01:41:21.431Z,47.50
2022-09-22T01:44:03.129Z,47.33
2022-09-22T01:46:34.285Z,47.17
2022-09-22T01:49:06.287Z,47.43
2022-09-22T01:51:48.845Z,47.77
2022-09-22T01:54:21.069Z,47.04
2022-09-22T01:56:55.734Z,47.56
2022-09-22T01:59:27.751Z,47.53
2022-09-22T02:02:00.461Z,47.14
2022-09-22T02:04:46.786Z,47.87
2022-09-22T02:07:20.806Z,47.25
2022-09-22T02:09:49.991Z,47.49
2022-09-22T02:12:18.328Z,47.04
2022-09-22T02:14:46.785Z,47.71
2022-09-22T02:17:14.981Z,47.46
2022-09-22T02:19:42.353Z,47.11
2022-09-22T02:22:10.780Z,47.39
2022-09-22T02:24:43.022Z,47.91
2022-09-22T02:27:26.267Z,47.74
2022-09-22T02:30:08.045Z,47.79
2022-09-22T02:32:37.418Z,47.69
2022-09-22T02:35:04.449Z,47.23
2022-09-22T02:37:45.219Z,47.73
2022-09-22T02:40:30.462Z,46.97
2022-09-22T02:43:07.451Z,47.69
2022-09-22T02:45:50.819Z,48.57
2022-09-22T02:48:25.454Z,47.70
2022-09-22T02:50:53.239Z,47.63
2022-09-22T02:53:19.583Z,47.40
2022-09-22T02:55:47.049Z,47.78
2022-09-22T02:58:15.920Z,47.25
2022-09-22T03:00:43.028Z,47.37
2022-09-22T03:03:11.454Z,47.17
2022-09-22T03:05:38.303Z,47.13
2022-09-22T03:08:05.022Z,47.30
2022-09-22T03:10:31.613Z,47.23
2022-09-22T03:13:15.631Z,47.76
2022-09-22T03:15:43.578Z,47.48
2022-09-22T03:18:09.961Z,47.42
2022-09-22T03:20:37.381Z,47.47
2022-09-22T03:23:03.685Z,47.62
2022-09-22T03:25:29.978Z,47.38
2022-09-22T03:27:56.320Z,47.25
2022-09-22T03:30:22.616Z,47.14
2022-09-22T03:32:48.905Z,47.23
2022-09-22T03:35:15.499Z,47.93
2022-09-22T03:37:41.793Z,47.51
2022-09-22T03:40:08.255Z,48.00
2022-09-22T03:42:35.491Z,47.91
2022-09-22T03:45:04.174Z,47.26
2022-09-22T03:47:31.016Z,47.51
2022-09-22T03:49:57.353Z,47.20
2022-09-22T03:52:24.045Z,47.23
2022-09-22T03:54:52.037Z,46.87
2022-09-22T03:57:18.328Z,47.16
2022-09-22T03:59:44.612Z,47.62
2022-09-22T04:02:11.354Z,47.16
2022-09-22T04:04:37.769Z,47.82
2022-09-22T04:07:07.366Z,47.37
2022-09-22T04:09:34.878Z,47.57
2022-09-22T04:12:01.576Z,47.24
2022-09-22T04:14:27.977Z,47.40
2022-09-22T04:16:54.403Z,47.29
2022-09-22T04:19:20.835Z,48.02
2022-09-22T04:21:47.134Z,47.80
2022-09-22T04:24:13.569Z,47.46
2022-09-22T04:26:47.720Z,47.67
2022-09-22T04:29:26.302Z,47.75
2022-09-22T04:31:52.598Z,47.13
2022-09-22T04:34:18.993Z,47.13
2022-09-22T04:36:45.843Z,47.70
2022-09-22T04:39:12.233Z,47.14
2022-09-22T04:41:38.706Z,47.50
2022-09-22T04:44:05.028Z,47.69
2022-09-22T04:46:31.347Z,47.12
2022-09-22T04:48:57.780Z,47.23
2022-09-22T04:51:24.080Z,47.26
2022-09-22T04:53:50.404Z,47.49
2022-09-22T04:56:17.306Z,47.42
2022-09-22T04:58:43.597Z,48.18
2022-09-22T05:01:09.950Z,47.84
2022-09-22T05:03:38.178Z,47.76
2022-09-22T05:06:06.327Z,47.57
2022-09-22T05:08:32.718Z,47.59
2022-09-22T05:10:59.692Z,47.85
2022-09-22T05:13:25.988Z,48.31
2022-09-22T05:15:52.568Z,48.06
2022-09-22T05:18:18.882Z,47.51
2022-09-22T05:20:45.735Z,47.32
2022-09-22T05:23:12.019Z,47.53
2022-09-22T05:25:39.072Z,48.18
2022-09-22T05:28:05.364Z,47.16
2022-09-22T05:30:31.707Z,47.86
2022-09-22T05:32:57.991Z,47.68
2022-09-22T05:35:25.556Z,48.14
2022-09-22T05:37:53.400Z,47.83
2022-09-22T05:40:20.510Z,47.45
2022-09-22T05:42:49.027Z,47.71
2022-09-22T05:45:16.550Z,47.65
2022-09-22T05:47:43.050Z,48.28
2022-09-22T05:50:11.394Z,47.85
2022-09-22T05:52:37.783Z,47.95
2022-09-22T05:55:04.961Z,48.39
2022-09-22T05:57:31.991Z,48.34
2022-09-22T05:59:58.645Z,48.75
2022-09-22T06:02:26.729Z,48.78
2022-09-22T06:04:54.007Z,48.45
2022-09-22T06:07:21.362Z,48.65
2022-09-22T06:09:48.332Z,48.62
2022-09-22T06:12:15.145Z,48.33
2022-09-22T06:14:41.475Z,48.47
2022-09-22T06:17:11.693Z,48.53
2022-09-22T06:19:39.291Z,48.78
2022-09-22T06:22:05.867Z,48.66
2022-09-22T06:24:32.479Z,48.80
2022-09-22T06:26:58.796Z,48.73
2022-09-22T06:29:25.871Z,48.93
2022-09-22T06:31:52.289Z,48.96
2022-09-22T06:34:18.829Z,48.43
2022-09-22T06:36:48.072Z,49.46
2022-09-22T06:39:14.804Z,49.19
2022-09-22T06:41:41.133Z,48.90
2022-09-22T06:44:08.888Z,49.09
2022-09-22T06:46:35.252Z,49.27
2022-09-22T06:49:02.460Z,49.12
2022-09-22T06:51:32.805Z,49.18
2022-09-22T06:54:01.836Z,48.99
2022-09-22T06:56:28.436Z,49.21
2022-09-22T06:59:09.758Z,49.27
2022-09-22T07:01:37.314Z,49.34
2022-09-22T07:04:04.496Z,49.11
2022-09-22T07:06:30.863Z,49.06
2022-09-22T07:08:57.198Z,49.15
2022-09-22T07:11:23.682Z,48.80
2022-09-22T07:13:53.203Z,49.12
2022-09-22T07:16:22.000Z,49.07
2022-09-22T07:18:50.492Z,49.01
2022-09-22T07:21:22.674Z,48.66
2022-09-22T07:23:49.888Z,48.88
2022-09-22T07:26:19.738Z,49.63
2022-09-22T07:28:50.287Z,50.59
2022-09-22T07:31:17.441Z,51.07
2022-09-22T07:33:45.068Z,51.30
2022-09-22T07:36:13.891Z,50.89
2022-09-22T07:38:42.107Z,51.35
2022-09-22T07:41:12.115Z,50.36
2022-09-22T07:43:40.253Z,50.02
2022-09-22T07:46:07.428Z,49.56
2022-09-22T07:48:36.312Z,48.43
2022-09-22T07:51:04.270Z,47.42
2022-09-22T07:53:31.582Z,46.69
2022-09-22T07:56:27.666Z,44.23
2022-09-22T07:58:54.556Z,44.12
2022-09-22T08:01:23.255Z,43.11
2022-09-22T08:03:50.760Z,42.73
2022-09-22T08:06:19.919Z,41.71
2022-09-22T08:08:52.247Z,41.75
2022-09-22T08:11:20.812Z,41.54
2022-09-22T08:13:57.211Z,41.89
2022-09-22T08:16:28.749Z,41.49
2022-09-22T08:18:56.731Z,41.70
2022-09-22T08:21:24.740Z,41.66
2022-09-22T08:23:52.112Z,41.48
2022-09-22T08:26:20.088Z,41.11
2022-09-22T08:28:50.480Z,41.45
2022-09-22T08:31:19.995Z,41.56
2022-09-22T08:33:49.111Z,41.72
2022-09-22T08:36:16.522Z,41.76
2022-09-22T08:38:43.559Z,41.83
2022-09-22T08:41:15.667Z,41.16
2022-09-22T08:43:55.334Z,42.19
2022-09-22T08:46:30.914Z,41.58
2022-09-22T08:49:32.760Z,40.90
2022-09-22T08:52:26.892Z,41.35
2022-09-22T08:54:59.677Z,41.27
2022-09-22T08:57:56.150Z,40.97
2022-09-22T09:00:24.217Z,41.29
2022-09-22T09:03:05.849Z,41.72
2022-09-22T09:05:48.685Z,40.76
2022-09-22T09:08:39.201Z,41.25
2022-09-22T09:11:42.548Z,40.69
2022-09-22T09:14:41.055Z,40.52
2022-09-22T09:17:19.265Z,39.94
2022-09-22T09:19:53.238Z,39.98
2022-09-22T09:22:25.208Z,40.10
2022-09-22T09:27:46.906Z,39.93
2022-09-22T09:30:21.575Z,39.34
2022-09-22T09:32:52.680Z,39.25
2022-09-22T09:35:26.651Z,39.46
2022-09-22T09:37:58.933Z,39.38
2022-09-22T09:40:25.503Z,39.34
2022-09-22T09:43:05.419Z,38.83
2022-09-22T09:46:11.634Z,38.92
2022-09-22T09:49:05.726Z,38.60
2022-09-22T09:51:41.130Z,38.18
2022-09-22T09:54:14.442Z,38.56
2022-09-22T09:57:27.496Z,38.47
2022-09-22T10:00:34.263Z,37.88
2022-09-22T10:03:13.556Z,38.14
2022-09-22T10:05:40.007Z,38.03
2022-09-22T10:08:20.713Z,37.27
2022-09-22T10:10:47.895Z,37.93
2022-09-22T10:13:17.446Z,37.47
2022-09-22T10:16:01.401Z,36.63
2022-09-22T10:18:40.120Z,35.92
2022-09-22T10:21:15.623Z,36.09
2022-09-22T10:23:53.253Z,36.41
2022-09-22T10:26:26.162Z,37.07
2022-09-22T10:29:20.938Z,35.85
2022-09-22T10:32:06.222Z,35.40
2022-09-22T10:34:34.466Z,35.48
2022-09-22T10:37:03.240Z,35.39
2022-09-22T10:39:39.859Z,34.36
2022-09-22T10:42:14.892Z,34.45
2022-09-22T10:44:45.212Z,34.76
2022-09-22T10:47:24.787Z,33.76
2022-09-22T10:50:16.021Z,35.92
2022-09-22T10:52:56.081Z,33.66
2022-09-22T10:55:37.212Z,34.28
2022-09-22T10:58:09.594Z,33.76
2022-09-22T11:00:39.425Z,34.00
2022-09-22T11:03:15.176Z,33.60
2022-09-22T11:06:21.657Z,33.41
2022-09-22T11:09:36.297Z,33.47
2022-09-22T11:12:17.585Z,33.67
2022-09-22T11:15:21.407Z,32.83
2022-09-22T11:17:58.570Z,32.46
2022-09-22T11:20:36.224Z,33.09
2022-09-22T11:23:24.641Z,32.80
2022-09-22T11:26:11.884Z,34.93
2022-09-22T11:29:00.233Z,33.57
2022-09-22T11:31:42.264Z,34.99
2022-09-22T11:34:35.751Z,33.50
2022-09-22T11:37:26.688Z,33.27
2022-09-22T11:39:55.928Z,33.86
2022-09-22T11:42:53.030Z,32.99
2022-09-22T11:45:25.745Z,33.11
2022-09-22T11:48:07.178Z,33.58
2022-09-22T11:50:43.296Z,32.83
2022-09-22T11:53:33.497Z,33.19
2022-09-22T11:56:31.315Z,32.87
2022-09-22T11:59:02.425Z,33.04
2022-09-22T12:01:35.722Z,32.14
2022-09-22T12:04:16.859Z,31.83
2022-09-22T12:06:46.027Z,31.79
2022-09-22T12:09:36.781Z,31.35
2022-09-22T12:12:04.888Z,31.92
2022-09-22T12:14:32.060Z,32.14
2022-09-22T12:17:12.451Z,31.30
2022-09-22T12:20:28.292Z,31.87
2022-09-22T12:23:13.634Z,30.85
2022-09-22T12:25:55.312Z,30.70
2022-09-22T12:28:28.069Z,30.53
2022-09-22T12:30:57.526Z,30.73
2022-09-22T12:33:25.253Z,30.85
2022-09-22T12:35:54.382Z,30.23
2022-09-22T12:38:22.735Z,29.33
2022-09-22T12:40:51.243Z,30.18
2022-09-22T12:43:20.252Z,31.77
2022-09-22T12:45:48.299Z,30.15
2022-09-22T12:48:22.440Z,29.91
2022-09-22T12:50:49.753Z,30.03
2022-09-22T12:53:21.871Z,29.36
2022-09-22T12:55:55.985Z,29.49
2022-09-22T12:58:22.326Z,30.12
2022-09-22T13:00:53.334Z,29.75
2022-09-22T13:03:25.649Z,28.60
2022-09-22T13:05:54.483Z,29.33
2022-09-22T13:08:44.990Z,29.40
2022-09-22T13:11:11.712Z,29.21
2022-09-22T13:13:46.684Z,28.38
2022-09-22T13:16:16.074Z,28.83
2022-09-22T13:18:58.782Z,29.32
2022-09-22T13:21:27.322Z,29.16
2022-09-22T13:23:53.539Z,30.75
2022-09-22T13:26:33.353Z,29.65
2022-09-22T13:29:13.415Z,29.52
2022-09-22T13:31:42.930Z,28.99
2022-09-22T13:34:28.989Z,29.22
2022-09-22T13:37:19.460Z,29.31
2022-09-22T13:39:53.915Z,28.69
2022-09-22T13:42:32.176Z,28.40
2022-09-22T13:45:03.564Z,28.39
2022-09-22T13:47:30.529Z,28.89
2022-09-22T13:50:04.485Z,28.09
2022-09-22T13:52:34.926Z,28.28
2022-09-22T13:55:12.940Z,28.16
2022-09-22T13:57:39.770Z,28.18
2022-09-22T14:00:09.631Z,28.46
2022-09-22T14:02:43.593Z,28.20
2022-09-22T14:05:18.682Z,27.82
2022-09-22T14:08:07.813Z,28.18
2022-09-22T14:10:33.310Z,28.70
2022-09-22T14:12:59.618Z,28.64
2022-09-22T14:15:34.728Z,28.44
2022-09-22T14:18:02.034Z,28.44
2022-09-22T14:20:28.466Z,28.69
2022-09-22T14:22:54.858Z,28.64
2022-09-22T14:25:22.969Z,27.92
2022-09-22T14:27:55.293Z,27.50
2022-09-22T14:30:31.066Z,27.59
2022-09-22T14:33:02.716Z,27.74
2022-09-22T14:35:36.218Z,27.15
2022-09-22T14:38:14.684Z,27.32
2022-09-22T14:40:52.485Z,27.39
2022-09-22T14:43:31.140Z,27.82
2022-09-22T14:46:07.342Z,27.63
2022-09-22T14:48:39.080Z,27.62
2022-09-22T14:51:12.733Z,27.47
2022-09-22T14:53:46.407Z,27.35
2022-09-22T14:56:22.893Z,26.93
2022-09-22T14:58:52.200Z,27.09
2022-09-22T15:01:45.310Z,27.21
2022-09-22T15:04:18.477Z,27.27
2022-09-22T15:06:46.678Z,27.55
2022-09-22T15:09:23.619Z,27.61
2022-09-22T15:11:53.079Z,28.16
2022-09-22T15:14:44.635Z,28.11
2022-09-22T15:18:19.476Z,28.33
2022-09-22T15:20:58.542Z,28.19
2022-09-22T15:23:46.840Z,28.13
2022-09-22T15:26:25.175Z,29.03
2022-09-22T15:28:53.587Z,27.93
2022-09-22T15:31:26.537Z,28.02
2022-09-22T15:33:56.906Z,27.84
2022-09-22T15:36:25.610Z,27.76
2022-09-22T15:38:59.678Z,27.65
2022-09-22T15:41:27.384Z,28.40
2022-09-22T15:43:53.898Z,28.24
2022-09-22T15:46:35.479Z,27.87
2022-09-22T15:49:10.025Z,28.38
2022-09-22T15:51:36.502Z,28.24
2022-09-22T15:54:02.954Z,28.15
2022-09-22T15:56:30.352Z,28.13
2022-09-22T15:59:00.974Z,28.27
2022-09-22T16:01:29.251Z,28.38
2022-09-22T16:03:55.845Z,28.43
2022-09-22T16:06:22.381Z,28.49
2022-09-22T16:08:51.678Z,28.18
2022-09-22T16:11:28.281Z,27.98
2022-09-22T16:13:58.801Z,28.43
2022-09-22T16:16:27.210Z,28.51
2022-09-22T16:18:53.678Z,28.65
2022-09-22T16:21:29.227Z,28.72
2022-09-22T16:24:01.699Z,28.65
2022-09-22T16:26:31.438Z,28.54
2022-09-22T16:28:58.801Z,28.89
2022-09-22T16:31:25.692Z,28.80
2022-09-22T16:33:56.120Z,29.01
2022-09-22T16:36:24.609Z,29.06
2022-09-22T16:38:50.889Z,29.32
2022-09-22T16:41:28.503Z,29.71
2022-09-22T16:43:56.340Z,29.68
2022-09-22T16:46:31.046Z,29.79
2022-09-22T16:49:08.051Z,30.02
2022-09-22T16:51:48.665Z,30.14
2022-09-22T16:54:15.928Z,30.38
2022-09-22T16:56:44.326Z,30.33
2022-09-22T16:59:13.128Z,30.51
2022-09-22T17:01:39.462Z,30.61
2022-09-22T17:04:07.484Z,30.99
2022-09-22T17:06:36.014Z,31.11
2022-09-22T17:09:02.693Z,30.94
2022-09-22T17:11:32.982Z,31.17
2022-09-22T17:14:02.794Z,31.64
2022-09-22T17:16:31.314Z,31.70
2022-09-22T17:18:59.699Z,31.73
2022-09-22T17:21:30.162Z,31.63
2022-09-22T17:24:01.977Z,32.16
2022-09-22T17:26:41.208Z,32.18
2022-09-22T17:29:08.370Z,32.68
2022-09-22T17:31:36.540Z,32.59
2022-09-22T17:34:03.579Z,32.91
2022-09-22T17:36:30.212Z,32.93
2022-09-22T17:38:58.741Z,33.52
2022-09-22T17:41:26.598Z,33.20
2022-09-22T17:43:57.507Z,32.72
2022-09-22T17:46:25.791Z,33.55
2022-09-22T17:49:11.018Z,33.54
2022-09-22T17:52:08.919Z,34.37
2022-09-22T17:55:00.336Z,34.69
2022-09-22T17:57:31.524Z,34.70
2022-09-22T17:59:58.880Z,34.61
2022-09-22T18:02:32.140Z,35.10
2022-09-22T18:04:58.870Z,34.91
2022-09-22T18:07:26.782Z,35.07
2022-09-22T18:09:55.343Z,35.12
2022-09-22T18:12:24.533Z,35.06
2022-09-22T18:14:52.988Z,35.01
2022-09-22T18:17:23.761Z,35.26
2022-09-22T18:19:56.263Z,35.52
2022-09-22T18:22:24.653Z,35.66
2022-09-22T18:24:54.463Z,35.57
2022-09-22T18:27:21.464Z,35.70
2022-09-22T18:29:53.369Z,36.07
2022-09-22T18:32:20.277Z,36.09
2022-09-22T18:34:47.869Z,36.25
2022-09-22T18:37:15.624Z,36.63
2022-09-22T18:39:44.585Z,36.53
2022-09-22T18:42:14.258Z,36.94
2022-09-22T18:44:41.402Z,36.97
2022-09-22T18:47:11.547Z,37.19
2022-09-22T18:49:40.476Z,37.20
2022-09-22T18:52:07.791Z,37.26
2022-09-22T18:54:35.245Z,37.66
2022-09-22T18:57:03.377Z,37.67
2022-09-22T18:59:29.885Z,37.79
2022-09-22T19:01:56.309Z,37.95
2022-09-22T19:04:24.778Z,38.17
2022-09-22T19:07:11.899Z,38.42
2022-09-22T19:09:38.422Z,38.21
2022-09-22T19:12:07.864Z,38.50
2022-09-22T19:14:38.157Z,38.45
2022-09-22T19:17:11.795Z,39.31
2022-09-22T19:19:42.389Z,38.90
2022-09-22T19:22:12.259Z,38.85
2022-09-22T19:24:40.072Z,39.19
2022-09-22T19:27:09.100Z,39.20
2022-09-22T19:29:35.792Z,38.92
2022-09-22T19:32:03.962Z,39.37
2022-09-22T19:34:30.856Z,39.40
2022-09-22T19:36:58.187Z,39.62
2022-09-22T19:39:24.652Z,39.55
2022-09-22T19:41:52.445Z,39.62
2022-09-22T19:44:20.746Z,39.66
2022-09-22T19:46:47.566Z,39.64
2022-09-22T19:49:15.221Z,39.88
2022-09-22T19:51:44.847Z,40.04
2022-09-22T19:54:11.635Z,40.17
2022-09-22T19:56:38.174Z,40.17
2022-09-22T19:59:07.093Z,40.10
2022-09-22T20:01:41.939Z,41.05
2022-09-22T20:04:22.310Z,41.16
2022-09-22T20:06:48.948Z,40.47
2022-09-22T20:09:16.177Z,40.65
2022-09-22T20:11:45.614Z,40.70
2022-09-22T20:14:22.342Z,40.76
2022-09-22T20:17:11.124Z,41.37
2022-09-22T20:19:38.311Z,40.74
2022-09-22T20:22:27.568Z,41.82
2022-09-22T20:24:57.297Z,40.96
2022-09-22T20:27:26.364Z,41.31
2022-09-22T20:29:57.003Z,41.24
2022-09-22T20:32:25.097Z,41.75
2022-09-22T20:34:52.435Z,41.37
2022-09-22T20:37:18.732Z,41.32
2022-09-22T20:39:45.273Z,41.71
2022-09-22T20:42:13.330Z,41.87
2022-09-22T20:44:43.395Z,41.67
2022-09-22T20:47:13.759Z,42.11
2022-09-22T20:49:41.748Z,41.66
2022-09-22T20:52:10.004Z,42.02
2022-09-22T20:54:36.781Z,41.88
2022-09-22T20:57:03.095Z,42.12
2022-09-22T20:59:29.372Z,42.37
2022-09-22T21:01:58.401Z,41.95
2022-09-22T21:04:24.755Z,42.14
2022-09-22T21:06:51.061Z,42.38
2022-09-22T21:09:35.901Z,42.45
2022-09-22T21:12:02.208Z,42.68
2022-09-22T21:14:29.081Z,42.23
2022-09-22T21:16:55.369Z,42.45
2022-09-22T21:19:21.733Z,42.95
2022-09-22T21:21:48.041Z,42.77
2022-09-22T21:24:14.656Z,43.15
2022-09-22T21:26:40.962Z,42.63
2022-09-22T21:29:09.307Z,43.05
2022-09-22T21:31:37.167Z,43.16
2022-09-22T21:34:03.912Z,43.05
2022-09-22T21:36:30.240Z,43.23
2022-09-22T21:38:59.017Z,43.51
2022-09-22T21:41:27.680Z,43.45
2022-09-22T21:43:54.236Z,43.36
2022-09-22T21:46:22.779Z,42.65
2022-09-22T21:48:49.118Z,43.49
2022-09-22T21:51:20.397Z,42.83
2022-09-22T21:53:48.603Z,43.07
2022-09-22T21:56:17.589Z,42.84
2022-09-22T21:58:46.262Z,42.78
2022-09-22T22:01:20.012Z,43.46
2022-09-22T22:03:47.986Z,43.14
2022-09-22T22:06:26.184Z,43.31
2022-09-22T22:09:03.973Z,43.29
2022-09-22T22:11:42.868Z,43.86
2022-09-22T22:14:12.470Z,43.74
2022-09-22T22:16:44.213Z,43.88
2022-09-22T22:19:14.304Z,43.82
2022-09-22T22:21:42.804Z,43.35
2022-09-22T22:24:17.455Z,43.38
2022-09-22T22:27:09.958Z,44.19
2022-09-22T22:29:38.631Z,43.50
2022-09-22T22:32:06.005Z,44.10
2022-09-22T22:34:32.485Z,43.14
2022-09-22T22:36:58.828Z,43.15
2022-09-22T22:39:25.558Z,43.36
2022-09-22T22:41:54.373Z,43.86
2022-09-22T22:44:20.816Z,43.75
2022-09-22T22:46:47.917Z,44.10
2022-09-22T22:49:14.245Z,43.84
2022-09-22T22:51:45.771Z,43.87
2022-09-22T22:54:14.235Z,44.28
2022-09-22T22:56:42.448Z,44.03
2022-09-22T22:59:10.976Z,43.99
2022-09-22T23:01:37.597Z,44.04
2022-09-22T23:04:06.490Z,44.39
2022-09-22T23:06:39.367Z,44.68
2022-09-22T23:09:08.276Z,44.51
2022-09-22T23:11:37.572Z,44.38
2022-09-22T23:14:06.246Z,44.36
2022-09-22T23:16:41.109Z,44.97
2022-09-22T23:19:10.231Z,44.50
2022-09-22T23:21:37.050Z,44.59
2022-09-22T23:24:04.965Z,44.65
2022-09-22T23:26:31.874Z,44.40
2022-09-22T23:28:58.697Z,44.95
2022-09-22T23:31:25.880Z,44.41
2022-09-22T23:33:54.067Z,44.21
2022-09-22T23:36:22.843Z,44.49
2022-09-22T23:38:54.348Z,44.76
2022-09-22T23:41:20.930Z,44.47
2022-09-22T23:43:47.249Z,44.49
2022-09-22T23:46:13.618Z,44.39
2022-09-22T23:48:40.132Z,44.48
2022-09-22T23:51:06.700Z,44.64
2022-09-22T23:53:35.601Z,44.87
2022-09-22T23:56:02.749Z,44.76
2022-09-22T23:58:30.324Z,44.67
